Alta Floresta, Brazil
Current Conditions -  °F | °C
As of 7:30 PM on Wednesday 22 Oct 2014 (Local Time) from SBAT Reporting Station
Clear Clear  
Wind Chill: 26°   Ceiling: Unl
Heat Index: 28°   Visibility: 6mi
Dew Point: 24°   Wind: 0mph
Humidity: 89%   Direction: NA
Pressure: 29.85"   Gusts: NA
Location:  9.9°S, 55.91°W
Report Text: SBAT 222230Z 00000KT CAVOK 26/24 Q1011
Loading
Personal Weather Stations






























Interactive Weather Map
Tropical Storm Tracking
New forecast layout! Learn more

10-Day Weather Forecast

Advertisements
Track Severe Weather on mobile